x

9414523 - Redwood City, Ca (rtyc1) Weather Station

7:54pm - Tue 1st Sep 2015 All times are PDT. -7 hours from GMT.

  • Wind
    18mph, 23mph gusts
  • Sea Temp 74°f
  • Air Temp 64°f
  • Sea Pressure 1012.3mb
  • 9414523 - Redwood City, Ca
  • 9414523 - Redwood City, Ca

More Historic Weather Station data

Upgrade to MSW Pro to gain access to the past 30 days of data for over 8000 Wavebouys and Weather Stations around the globe.

Join Pro

Comparision Forecast

View Surf forecast
   
Tue 09/01 7:54pm 18 23 mph 1012.3mb 74f 64f
7:48pm 20 23 mph 1012.2mb 74f 64f
7:42pm 16 23 mph 1012.1mb 74f 64f
7:36pm 21 24 mph 1011.9mb 74f 64f
7:30pm 21 24 mph 1011.9mb 74f 64f
7:24pm 21 24 mph 1011.8mb 74f 64f
7:18pm 18 23 mph 1011.7mb 74f 64f
7:12pm 18 22 mph 1011.6mb 74f 65f
7:06pm 20 22 mph 1011.5mb 74f 65f
7:00pm 15 18 mph 1011.4mb 74f 66f
6:54pm 16 18 mph 1011.3mb 74f 66f
6:48pm 15 17 mph 1011.2mb 74f 67f
6:42pm 15 18 mph 1011.2mb 74f 67f
6:36pm 17 21 mph 1011.2mb 74f 67f
6:30pm 11 14 mph 1011mb 74f 69f
6:24pm 11 14 mph 1010.9mb 74f 70f
6:18pm 13 14 mph 1010.8mb 74f 70f
6:12pm 11 14 mph 1010.8mb 74f 70f
6:06pm 14 17 mph 1010.6mb 74f 71f
6:00pm 14 16 mph 1010.6mb 74f 71f
5:54pm 11 14 mph 1010.5mb 74f 73f
5:48pm 11 13 mph 1010.5mb 74f 73f
5:42pm 11 14 mph 1010.4mb 74f 73f
5:36pm 11 14 mph 1010.4mb 74f 73f
5:30pm 14 16 mph 1010.3mb 74f 72f
5:24pm 14 16 mph 1010.3mb 74f 74f
5:18pm 14 16 mph 1010.2mb 73f 74f
5:12pm 13 15 mph 1010.2mb 73f 75f
5:06pm 13 15 mph 1010.1mb 73f 75f
5:00pm 14 15 mph 1010.1mb 73f 74f
4:54pm 15 17 mph 1010.2mb 73f 74f
4:48pm 16 20 mph 1010.1mb 73f 74f
4:42pm 14 17 mph 1010mb 73f 74f
4:36pm 15 18 mph 1010mb 73f 74f
4:30pm 15 18 mph 1010mb 73f 75f
4:24pm 15 18 mph 1010mb 73f 75f
4:18pm 14 16 mph 1010mb 73f 74f
4:12pm 14 15 mph 1010.1mb 73f 74f
4:06pm 15 17 mph 1010.2mb 73f 74f
4:00pm 16 17 mph 1010.2mb 73f 74f
3:54pm 15 17 mph 1010.2mb 73f 74f
3:48pm 15 17 mph 1010.2mb 73f 75f
3:42pm 15 18 mph 1010.2mb 73f 74f
3:36pm 15 18 mph 1010.3mb 73f 74f
3:30pm 14 16 mph 1010.3mb 73f 75f
3:24pm 14 16 mph 1010.5mb 73f 74f
3:18pm 14 16 mph 1010.5mb 73f 75f
3:12pm 14 16 mph 1010.7mb 73f 75f
3:06pm 11 14 mph 1010.7mb 73f 74f
3:00pm 14 16 mph 1010.8mb 73f 74f
2:54pm 13 15 mph 1010.8mb 73f 74f
2:48pm 14 15 mph 1010.8mb 73f 74f
2:42pm 13 15 mph 1010.8mb 73f 74f
2:36pm 13 15 mph 1010.9mb 73f 74f
2:30pm 14 16 mph 1010.9mb 73f 74f
2:24pm 11 15 mph 1011mb 73f 73f
2:18pm 14 16 mph 1011.1mb 73f 73f
2:12pm 15 17 mph 1011.1mb 73f 73f
2:06pm 15 18 mph 1011.2mb 73f 73f
2:00pm 15 17 mph 1011.2mb 73f 73f
1:54pm 15 17 mph 1011.2mb 73f 73f
1:48pm 15 18 mph 1011.2mb 73f 73f
1:42pm 15 17 mph 1011.2mb 73f 73f
1:36pm 14 17 mph 1011.2mb 73f 72f
1:30pm 15 17 mph 1011.2mb 73f 73f
1:24pm 15 17 mph 1011.2mb 73f 73f
1:18pm 13 15 mph 1011.3mb 73f 73f
1:12pm 11 15 mph 1011.3mb 73f 73f
1:06pm 10 15 mph 1011.4mb 73f 73f
1:00pm 6 11 mph 1011.3mb 73f 73f
12:54pm 3 6 mph 1011.4mb 73f 73f
12:48pm 3 6 mph 1011.4mb 73f 72f
12:42pm 5 7 mph 1011.4mb 73f 73f
12:36pm 5 6 mph 1011.5mb 73f 73f
12:30pm 2 7 mph 1011.6mb 73f 72f
12:24pm 3 9 mph 1011.5mb 73f 73f
12:18pm 5 8 mph 1011.6mb 73f 72f
12:12pm 5 8 mph 1011.7mb 73f 71f
12:06pm 6 8 mph 1011.8mb 73f 71f
12:00pm 6 8 mph 1011.9mb 73f 72f
11:54am 5 7 mph 1011.9mb 73f 71f
11:48am 6 8 mph 1012mb 73f 70f
11:42am 6 9 mph 1012mb 73f 71f
11:36am 6 9 mph 1011.9mb 73f 70f
11:30am 6 8 mph 1011.9mb 73f 70f
11:24am 6 8 mph 1011.9mb 73f 69f
11:18am 2 6 mph 1012mb 73f 69f
11:12am 5 9 mph 1012mb 73f 68f
11:06am 5 9 mph 1012mb 73f 68f
11:00am 5 8 mph 1012mb 73f 68f
10:54am 7 8 mph 1012.1mb 73f 67f
10:48am 5 8 mph 1012.1mb 73f 67f
10:42am 5 8 mph 1012.1mb 73f 67f
10:36am 6 8 mph 1012mb 73f 67f
10:30am 6 8 mph 1012.1mb 73f 67f
10:24am 5 7 mph 1012.1mb 73f 67f
10:18am 3 7 mph 1012mb 73f 67f
10:12am 2 5 mph 1012mb 73f 66f
10:06am 2 5 mph 1012mb 73f 66f
10:00am 2 5 mph 1012mb 73f 65f
9:54am 5 7 mph 1011.9mb 73f 65f
9:48am 6 7 mph 1011.9mb 73f 65f
9:42am 2 5 mph 1011.8mb 73f 66f
9:36am 2 5 mph 1011.9mb 73f 66f
9:30am 2 3 mph 1011.8mb 73f 66f
9:24am  -  2 mph 1011.8mb 73f 65f
9:18am 2 5 mph 1011.8mb 73f -
9:12am 2 3 mph 1011.7mb 73f -
9:06am  -  2 mph 1011.7mb 73f -
9:00am 1 3 mph 1011.7mb 73f 65f
8:54am 2 5 mph 1011.6mb 73f 64f
8:48am 2 5 mph - 73f 64f
8:42am 2 3 mph - 73f 64f
8:36am 3 5 mph - 73f 64f
8:30am 3 5 mph 1011.7mb 73f 64f
8:24am 3 5 mph 1011.7mb 73f 64f
8:18am 2 6 mph 1011.7mb 73f 63f
8:12am 2 3 mph 1011.6mb 73f 63f
8:06am 1 2 mph 1011.6mb 73f 63f
8:00am 1 2 mph 1011.6mb 73f 63f
7:54am 2 3 mph 1011.6mb 73f 62f
7:48am 2
mph
1011.6mb 73f 62f
7:42am 1 2 mph 1011.6mb 73f 62f
7:36am 1 2 mph 1011.6mb 73f 61f
7:30am 2 3 mph 1011.6mb 73f 61f
7:24am 2 3 mph 1011.6mb 73f 61f
7:18am 2
mph
1011.5mb 73f 60f
7:12am 2
mph
1011.5mb 73f 60f
7:06am 2 3 mph 1011.5mb 73f 60f
7:00am 2
mph
1011.5mb 73f 60f
6:54am 2 3 mph 1011.4mb 73f 60f
6:48am 2
mph
1011.4mb 73f 60f
6:42am 2
mph
1011.3mb 73f 60f
6:36am 2 3 mph 1011.3mb 73f 61f
6:30am 2 3 mph 1011.2mb 73f 60f
6:24am 2 3 mph 1011.2mb 73f 61f
6:18am 3
mph
1011.1mb 73f 61f
6:12am 3
mph
1011.1mb 73f 61f
6:06am 2 3 mph 1011.1mb 73f 61f
6:00am 1 2 mph 1011mb 73f 61f
5:54am 1 2 mph 1011mb 73f 61f
5:48am  -  1 mph 1011mb 73f 61f
5:42am 1 2 mph 1011mb 73f 61f
5:36am 2
mph
1010.9mb 73f 61f
5:30am 1 2 mph 1010.9mb 73f 61f
5:24am 1 2 mph 1010.8mb 73f 61f
5:18am 1 2 mph 1010.8mb 73f 61f
5:12am 1
mph
1010.8mb 73f 60f
5:06am 1
mph
1010.7mb 73f 61f
5:00am 1
mph
1010.8mb 73f 61f
4:54am 2
mph
1010.8mb 73f 61f
4:48am 2 3 mph 1010.9mb 73f 61f
4:42am 2
mph
1010.9mb 73f 61f
4:36am 1 2 mph 1010.9mb 73f 61f
4:30am 1 2 mph 1010.9mb 73f 61f
4:24am 1 2 mph 1010.9mb 73f 61f
4:18am 1 2 mph 1010.9mb 73f 61f
4:12am 1 2 mph 1010.8mb 73f 62f
4:06am 1 3 mph 1010.9mb 73f 62f
4:00am 1 3 mph 1010.9mb 73f 62f
3:54am 2 3 mph 1010.9mb 73f 62f
3:48am 3 6 mph 1010.9mb 73f 62f
3:42am 5
mph
1010.9mb 73f 62f
3:36am 5
mph
1010.9mb 73f 62f
3:30am 5
mph
- - 62f
3:24am 2 3 mph - - 62f
3:18am 2 5 mph 1010.9mb 73f 62f
3:12am 2 5 mph 1010.9mb 73f 62f
3:06am 5 6 mph 1010.8mb 73f 62f
3:00am 5 6 mph 1010.9mb 73f 63f
2:54am 5
mph
1010.9mb 73f 63f
2:48am  -  mph 1010.9mb 73f 63f
2:42am  -  mph 1010.9mb 73f 63f
2:36am  -  mph 1010.9mb 73f 63f
2:30am 2 6 mph 1011mb 73f 63f
2:24am 2 5 mph 1011mb 73f 63f
2:18am 3 5 mph 1011mb 73f 63f
2:12am 3 5 mph 1011.1mb 73f 63f
2:06am 3 5 mph 1011.1mb 73f 63f
2:00am 5 6 mph 1011.1mb 73f 63f
1:54am 3 6 mph 1011.2mb 73f 63f
1:48am 3 6 mph 1011.2mb 73f 63f
1:42am 3 6 mph 1011.2mb 73f 63f
1:36am 5 7 mph 1011.2mb 73f 63f
1:30am 5 6 mph 1011.3mb 73f 63f
1:24am 5 6 mph 1011.3mb 73f 63f
1:18am 5 6 mph - 73f 63f
1:12am 5 6 mph - 73f 63f
1:06am 3 6 mph - 73f 63f
1:00am 5 6 mph 1011.3mb 73f 63f
12:54am 5 6 mph 1011.3mb 73f 63f
12:48am 3 6 mph 1011.3mb 73f 63f
12:42am 3 6 mph 1011.3mb 73f 64f
12:36am 3 5 mph 1011.3mb 73f 64f
12:30am 3 5 mph 1011.3mb 73f 64f
12:24am 5 6 mph 1011.3mb 73f 64f
12:18am 3 6 mph 1011.4mb 73f 64f
12:12am 2 3 mph 1011.4mb 73f 64f
12:06am 2 3 mph 1011.4mb 73f 64f
12:00am 2 6 mph - 73f 65f
Mon 08/31 11:54pm 2 6 mph - 73f 65f
11:48pm 2 6 mph 1011.5mb 73f 65f
11:42pm 5 6 mph 1011.5mb 73f 65f
11:36pm 3 6 mph 1011.5mb 73f 65f
11:30pm 5 6 mph 1011.5mb 73f 65f
11:24pm 3 6 mph 1011.6mb 73f 65f
11:18pm 2 5 mph 1011.6mb 73f 65f
11:12pm 5 6 mph 1011.6mb 73f 66f
11:06pm 3 5 mph 1011.6mb 73f 65f
11:00pm 3 5 mph 1011.5mb 73f 65f
10:54pm 2 5 mph 1011.5mb 73f 65f
10:48pm 3 5 mph 1011.5mb 73f 64f
10:42pm 3 5 mph 1011.6mb 73f 64f
10:36pm 3 5 mph 1011.6mb 73f 64f
10:30pm 5
mph
1011.6mb 73f 64f
10:24pm 3 6 mph 1011.7mb 73f 63f
10:18pm 5 6 mph 1011.7mb 73f 63f
10:12pm 5 7 mph 1011.7mb 73f 63f
10:06pm 6 7 mph 1011.6mb 73f 63f
10:00pm 6 7 mph 1011.6mb 74f -
9:54pm 6 7 mph 1011.6mb 74f -
9:48pm 6 9 mph 1011.7mb 74f 64f
9:42pm 7 8 mph 1011.7mb 74f 64f
9:36pm 9 11 mph 1011.7mb 74f 64f
9:30pm 9 11 mph 1011.7mb 74f 64f
9:24pm 11 14 mph 1011.7mb 74f 64f
9:18pm 11 14 mph 1011.7mb 74f 64f
9:12pm 11 13 mph 1011.6mb 74f 64f
9:06pm 11 15 mph 1011.5mb 74f 64f
9:00pm 10 14 mph - 74f 64f
8:54pm 11 14 mph - 74f 64f
8:48pm 13 15 mph 1011.3mb 74f 64f
8:42pm 11 14 mph 1011.3mb 74f 65f
8:36pm 11 17 mph 1011.3mb 74f 65f
8:30pm 11 17 mph 1011.3mb 74f 65f
8:24pm 15 17 mph 1011.2mb 74f 65f
8:18pm 14 20 mph 1011.2mb 74f 65f
8:12pm 15 20 mph 1011.1mb 74f 65f
8:06pm 15 18 mph 1011.1mb 74f 65f
8:00pm 15 18 mph 1011mb 74f 65f
7:54pm 15 18 mph 1010.9mb 74f 65f
7:48pm 15 18 mph 1010.9mb 74f 66f
7:42pm 15 20 mph 1010.8mb 74f 66f
7:36pm 16 21 mph 1010.8mb 74f 66f
7:30pm 17 20 mph 1010.7mb 74f 66f
7:24pm 21 25 mph 1010.7mb 74f 67f
7:18pm 20 23 mph - 74f 67f
7:12pm 18 23 mph - 74f 67f
7:06pm 18 23 mph - 74f 67f
7:00pm 20 23 mph 1010.7mb 74f 67f
6:54pm 20 23 mph 1010.7mb 74f 68f
6:48pm 20 23 mph 1010.8mb 74f 68f
6:42pm 18 24 mph 1010.7mb 74f 69f
6:36pm 18 23 mph 1010.8mb 74f 69f
6:30pm 17 21 mph 1010.8mb 74f -
6:24pm 17 23 mph 1010.7mb 74f -
6:18pm 18 22 mph 1010.6mb 74f -
6:12pm 20 23 mph 1010.6mb 74f -
6:06pm 17 24 mph 1010.6mb 74f -
6:00pm 17 24 mph 1010.7mb 74f 71f
5:54pm 18 24 mph 1010.7mb 74f 72f
5:48pm 18 24 mph 1010.6mb 74f 72f
5:42pm 20 23 mph 1010.6mb 74f 72f
5:36pm 17 22 mph 1010.5mb 74f 73f
5:30pm 17 22 mph 1010.6mb 74f 73f
5:24pm 18 22 mph 1010.6mb 74f 74f
5:18pm 17 22 mph 1010.6mb 74f 74f
5:12pm 16 21 mph 1010.6mb 74f 74f
5:06pm 16 21 mph 1010.6mb 74f 75f
5:00pm 16 20 mph 1010.7mb 74f 75f
4:54pm 16 20 mph 1010.7mb 74f 75f
4:48pm 16 21 mph 1010.7mb 74f 75f
4:42pm 17 22 mph 1010.7mb 74f 76f
4:36pm 17 22 mph 1010.7mb 74f 76f
4:00pm 17 21 mph 1010.9mb 73f 77f
3:54pm 16 21 mph 1011mb 73f 77f
3:48pm 18 21 mph 1011mb 73f 77f
3:42pm 18 21 mph 1011.1mb 73f 77f
3:36pm 14 17 mph 1011.1mb 73f 77f
3:30pm 16 17 mph 1011.2mb 73f 77f
3:24pm 14 16 mph 1011.3mb 73f 77f
3:18pm 14 16 mph 1011.4mb 73f 77f
3:12pm 14 16 mph 1011.4mb 73f 77f
3:06pm 13 15 mph 1011.5mb 73f 78f
3:00pm 14 15 mph 1011.5mb 73f 78f
2:54pm 13 15 mph 1011.6mb 73f 77f
2:48pm 13 15 mph 1011.6mb 73f 77f
2:42pm 11 14 mph 1011.7mb 73f 77f
2:36pm 11 14 mph 1011.8mb 73f 78f
2:30pm 13 15 mph 1011.8mb 73f 77f
2:24pm 13 15 mph 1011.9mb 73f 77f
2:18pm 13 16 mph 1012mb 73f 76f
2:12pm 14 16 mph 1012mb 73f 75f
2:06pm 14 16 mph 1012.1mb 73f 75f
2:00pm 14 17 mph 1012.1mb 73f 74f
1:54pm 15 17 mph 1012.2mb 73f 74f
1:48pm 15 17 mph 1012.3mb 73f 74f
1:42pm 13 15 mph 1012.4mb 72f 74f
1:36pm 13 15 mph 1012.4mb 72f 74f
1:30pm 10 13 mph 1012.5mb 72f 74f
1:24pm 11 15 mph 1012.5mb 73f 73f
1:18pm 10 13 mph 1012.5mb 73f 73f
1:12pm 10 13 mph 1012.5mb 73f 73f
1:06pm 9 13 mph 1012.6mb 73f 73f
1:00pm 9 13 mph 1012.7mb 73f 72f
12:54pm 9 10 mph 1012.8mb 73f 72f
12:48pm 9 10 mph 1012.9mb 73f 72f
12:42pm 9 10 mph 1012.9mb 73f 73f
12:36pm 6 9 mph 1012.9mb 73f 74f
12:30pm 6 9 mph 1012.9mb 73f 74f
12:24pm 6
mph
1013mb 73f 74f
12:18pm 6
mph
1013mb 73f 74f
12:12pm 3 7 mph 1013.1mb 73f 73f
12:06pm 5 6 mph 1013.1mb 73f 73f
12:00pm 3 6 mph 1013.2mb 73f 73f
11:54am 3 6 mph 1013.2mb 73f 72f
11:48am 5 6 mph 1013.3mb 73f 72f
11:42am 5 9 mph 1013.3mb 73f 72f
11:36am 3 7 mph 1013.4mb 73f 71f
11:30am 3 5 mph 1013.4mb 73f 71f
11:24am 2 5 mph 1013.5mb 73f 71f
11:18am 2 5 mph 1013.6mb 73f 71f
11:12am 2 5 mph 1013.6mb 73f 71f
11:06am 1 5 mph 1013.7mb 73f 71f
11:00am 3 6 mph 1013.7mb 73f 70f
10:54am 3 6 mph 1013.8mb 73f 70f
10:48am 3 6 mph 1013.8mb 73f 70f
10:42am 3 6 mph 1013.8mb 73f 69f
10:36am 6 7 mph 1013.8mb 73f 68f
10:30am 6 7 mph 1013.8mb 73f 68f
10:24am 6 8 mph 1013.8mb 73f 68f
10:18am 5 8 mph 1013.9mb 73f 68f
10:12am 5 7 mph 1013.9mb 72f 69f
10:06am 5 7 mph 1013.8mb 72f 68f
10:00am 5 7 mph 1013.8mb 72f 68f
9:54am 3 6 mph 1013.8mb 72f 68f
9:48am 3 6 mph 1013.7mb 72f 68f
9:42am 2 6 mph 1013.7mb 72f 68f
9:36am 2 5 mph 1013.8mb 73f 67f
9:30am 1 5 mph 1013.8mb 73f 67f
9:24am 1 5 mph 1013.8mb 73f 67f
9:18am 2 5 mph 1013.8mb 73f 67f
9:12am 3
mph
1013.8mb 73f 66f
9:06am 2 3 mph 1013.8mb 73f 67f
9:00am 2 5 mph 1013.9mb 73f 66f
8:54am 2 5 mph 1013.8mb 73f 66f
8:48am 3 5 mph 1013.9mb 73f 65f
7:54am 2
mph
1013.7mb 73f 63f
7:48am 1 3 mph 1013.7mb 73f 63f
6:54am 3
mph
1013mb 73f 61f
6:48am 3
mph
1013mb 73f 62f
5:54am 2 3 mph 1012.9mb 73f 62f
5:48am 3 5 mph 1012.9mb 73f 62f
4:54am 1 2 mph 1012.9mb 73f 64f
4:48am 1
mph
1012.9mb 73f 63f
3:54am 2 3 mph 1012.8mb 73f 63f
3:48am 2 3 mph 1012.8mb 73f 63f
2:54am 3 5 mph 1012.8mb 73f 63f
2:48am 3 5 mph 1012.7mb 73f 63f